Terminal Aerodrome Forecast
Issued by NWS

Home | Current Version | Previous Version | Text Only | Print | Product List | Glossary Off
Versions: 1 2 3 4 5 6 7 8 9 10 11 12 13 14

000
FTUS45 KGGW 201720
TAFGDV
TAF
KGDV 201720Z 2018/2118 32006KT P6SM SKC
     FM202100 32010KT P6SM SCT150
     FM210600 36006KT P6SM FEW120=

USA.gov is the U.S. government's official web portal to all federal, state and local government web resources and services.